sensor_id;sensor_type;location;lat;lon;timestamp;P1;durP1;ratioP1;P2;durP2;ratioP2
61962;SDS011;47927;42.646;23.096;2023-04-24T00:01:13;6.70;;;4.30;;
61962;SDS011;47927;42.646;23.096;2023-04-24T00:03:40;6.05;;;4.30;;
61962;SDS011;47927;42.646;23.096;2023-04-24T00:06:06;8.88;;;3.92;;
61962;SDS011;47927;42.646;23.096;2023-04-24T00:08:33;6.18;;;4.15;;
61962;SDS011;47927;42.646;23.096;2023-04-24T00:11:00;9.20;;;4.18;;
61962;SDS011;47927;42.646;23.096;2023-04-24T00:13:25;9.25;;;5.00;;
61962;SDS011;47927;42.646;23.096;2023-04-24T00:15:53;8.43;;;4.57;;
61962;SDS011;47927;42.646;23.096;2023-04-24T00:18:19;7.78;;;4.45;;
61962;SDS011;47927;42.646;23.096;2023-04-24T00:20:45;9.73;;;4.75;;
61962;SDS011;47927;42.646;23.096;2023-04-24T00:25:41;8.70;;;4.55;;
61962;SDS011;47927;42.646;23.096;2023-04-24T00:28:06;10.32;;;4.40;;
61962;SDS011;47927;42.646;23.096;2023-04-24T00:30:32;10.75;;;5.95;;
61962;SDS011;47927;42.646;23.096;2023-04-24T00:32:57;10.48;;;6.78;;
61962;SDS011;47927;42.646;23.096;2023-04-24T00:35:23;9.25;;;5.28;;
61962;SDS011;47927;42.646;23.096;2023-04-24T00:37:48;12.00;;;5.45;;
61962;SDS011;47927;42.646;23.096;2023-04-24T00:40:14;11.85;;;6.40;;
61962;SDS011;47927;42.646;23.096;2023-04-24T00:42:41;11.20;;;5.32;;
61962;SDS011;47927;42.646;23.096;2023-04-24T00:45:09;15.43;;;6.05;;
61962;SDS011;47927;42.646;23.096;2023-04-24T00:47:35;13.57;;;5.43;;
61962;SDS011;47927;42.646;23.096;2023-04-24T00:50:05;8.43;;;4.97;;
61962;SDS011;47927;42.646;23.096;2023-04-24T00:52:33;11.30;;;5.20;;
61962;SDS011;47927;42.646;23.096;2023-04-24T00:54:59;9.10;;;4.55;;
61962;SDS011;47927;42.646;23.096;2023-04-24T00:57:25;10.73;;;5.10;;
61962;SDS011;47927;42.646;23.096;2023-04-24T00:59:51;6.30;;;4.65;;
61962;SDS011;47927;42.646;23.096;2023-04-24T01:02:18;7.15;;;4.45;;
61962;SDS011;47927;42.646;23.096;2023-04-24T01:04:45;9.07;;;4.40;;
61962;SDS011;47927;42.646;23.096;2023-04-24T01:07:11;11.82;;;4.75;;
61962;SDS011;47927;42.646;23.096;2023-04-24T01:09:40;6.47;;;3.88;;
61962;SDS011;47927;42.646;23.096;2023-04-24T01:12:09;9.95;;;4.60;;
61962;SDS011;47927;42.646;23.096;2023-04-24T01:14:36;5.53;;;4.03;;
61962;SDS011;47927;42.646;23.096;2023-04-24T01:17:03;7.68;;;4.40;;
61962;SDS011;47927;42.646;23.096;2023-04-24T01:19:29;6.65;;;4.30;;
61962;SDS011;47927;42.646;23.096;2023-04-24T01:21:56;7.32;;;4.18;;
61962;SDS011;47927;42.646;23.096;2023-04-24T01:24:24;5.93;;;4.05;;
61962;SDS011;47927;42.646;23.096;2023-04-24T01:26:50;8.13;;;4.07;;
61962;SDS011;47927;42.646;23.096;2023-04-24T01:29:17;8.20;;;4.80;;
61962;SDS011;47927;42.646;23.096;2023-04-24T01:31:43;6.45;;;4.25;;
61962;SDS011;47927;42.646;23.096;2023-04-24T01:34:09;7.60;;;4.25;;
61962;SDS011;47927;42.646;23.096;2023-04-24T01:36:35;6.15;;;4.10;;
61962;SDS011;47927;42.646;23.096;2023-04-24T01:39:01;6.75;;;4.40;;
61962;SDS011;47927;42.646;23.096;2023-04-24T01:41:27;7.47;;;4.10;;
61962;SDS011;47927;42.646;23.096;2023-04-24T01:43:53;9.13;;;4.15;;
61962;SDS011;47927;42.646;23.096;2023-04-24T01:46:20;9.02;;;4.45;;
61962;SDS011;47927;42.646;23.096;2023-04-24T01:48:45;7.10;;;4.25;;
61962;SDS011;47927;42.646;23.096;2023-04-24T01:51:11;7.35;;;4.13;;
61962;SDS011;47927;42.646;23.096;2023-04-24T01:53:37;8.38;;;4.68;;
61962;SDS011;47927;42.646;23.096;2023-04-24T01:56:02;6.90;;;4.35;;
61962;SDS011;47927;42.646;23.096;2023-04-24T01:58:28;6.95;;;4.20;;
61962;SDS011;47927;42.646;23.096;2023-04-24T02:00:58;7.00;;;4.43;;
61962;SDS011;47927;42.646;23.096;2023-04-24T02:03:26;7.85;;;4.15;;
61962;SDS011;47927;42.646;23.096;2023-04-24T02:05:52;8.80;;;4.30;;
61962;SDS011;47927;42.646;23.096;2023-04-24T02:08:17;8.52;;;4.57;;
61962;SDS011;47927;42.646;23.096;2023-04-24T02:10:43;5.68;;;4.22;;
61962;SDS011;47927;42.646;23.096;2023-04-24T02:13:09;6.65;;;3.92;;
61962;SDS011;47927;42.646;23.096;2023-04-24T02:15:35;5.78;;;4.07;;
61962;SDS011;47927;42.646;23.096;2023-04-24T02:18:02;6.05;;;4.40;;
61962;SDS011;47927;42.646;23.096;2023-04-24T02:20:30;7.47;;;4.63;;
61962;SDS011;47927;42.646;23.096;2023-04-24T02:22:59;12.70;;;4.93;;
61962;SDS011;47927;42.646;23.096;2023-04-24T02:25:24;8.20;;;4.78;;
61962;SDS011;47927;42.646;23.096;2023-04-24T02:27:52;10.20;;;4.95;;
61962;SDS011;47927;42.646;23.096;2023-04-24T02:30:18;9.38;;;5.00;;
61962;SDS011;47927;42.646;23.096;2023-04-24T02:32:44;6.75;;;4.50;;
61962;SDS011;47927;42.646;23.096;2023-04-24T02:35:10;9.00;;;4.82;;
61962;SDS011;47927;42.646;23.096;2023-04-24T02:37:35;8.25;;;4.75;;
61962;SDS011;47927;42.646;23.096;2023-04-24T02:40:01;7.57;;;4.47;;
61962;SDS011;47927;42.646;23.096;2023-04-24T02:42:27;7.85;;;4.53;;
61962;SDS011;47927;42.646;23.096;2023-04-24T02:44:52;8.02;;;4.78;;
61962;SDS011;47927;42.646;23.096;2023-04-24T02:47:18;8.27;;;4.68;;
61962;SDS011;47927;42.646;23.096;2023-04-24T02:49:44;6.32;;;4.32;;
61962;SDS011;47927;42.646;23.096;2023-04-24T02:52:10;8.13;;;4.88;;
61962;SDS011;47927;42.646;23.096;2023-04-24T02:54:35;9.02;;;4.72;;
61962;SDS011;47927;42.646;23.096;2023-04-24T02:57:01;6.85;;;4.57;;
61962;SDS011;47927;42.646;23.096;2023-04-24T02:59:27;7.78;;;4.60;;
61962;SDS011;47927;42.646;23.096;2023-04-24T03:01:54;6.43;;;4.45;;
61962;SDS011;47927;42.646;23.096;2023-04-24T03:04:19;6.40;;;4.25;;
61962;SDS011;47927;42.646;23.096;2023-04-24T03:06:46;7.20;;;4.60;;
61962;SDS011;47927;42.646;23.096;2023-04-24T03:09:12;9.45;;;4.90;;
61962;SDS011;47927;42.646;23.096;2023-04-24T03:11:37;7.32;;;4.70;;
61962;SDS011;47927;42.646;23.096;2023-04-24T03:14:03;6.68;;;4.53;;
61962;SDS011;47927;42.646;23.096;2023-04-24T03:16:29;7.65;;;4.63;;
61962;SDS011;47927;42.646;23.096;2023-04-24T03:19:02;6.05;;;4.43;;
61962;SDS011;47927;42.646;23.096;2023-04-24T03:21:30;6.63;;;4.80;;
61962;SDS011;47927;42.646;23.096;2023-04-24T03:23:57;6.15;;;4.13;;
61962;SDS011;47927;42.646;23.096;2023-04-24T03:26:22;9.88;;;4.53;;
61962;SDS011;47927;42.646;23.096;2023-04-24T03:29:00;7.70;;;4.53;;
61962;SDS011;47927;42.646;23.096;2023-04-24T03:31:26;7.82;;;4.70;;
61962;SDS011;47927;42.646;23.096;2023-04-24T03:33:52;6.68;;;4.55;;
61962;SDS011;47927;42.646;23.096;2023-04-24T03:36:17;9.25;;;4.30;;
61962;SDS011;47927;42.646;23.096;2023-04-24T03:38:44;7.70;;;4.40;;
61962;SDS011;47927;42.646;23.096;2023-04-24T03:41:28;7.95;;;4.95;;
61962;SDS011;47927;42.646;23.096;2023-04-24T03:44:15;10.05;;;5.53;;
61962;SDS011;47927;42.646;23.096;2023-04-24T03:46:41;11.50;;;5.63;;
61962;SDS011;47927;42.646;23.096;2023-04-24T03:49:06;9.25;;;5.50;;
61962;SDS011;47927;42.646;23.096;2023-04-24T03:51:35;11.52;;;5.97;;
61962;SDS011;47927;42.646;23.096;2023-04-24T03:54:13;12.10;;;7.05;;
61962;SDS011;47927;42.646;23.096;2023-04-24T03:56:39;10.55;;;5.32;;
61962;SDS011;47927;42.646;23.096;2023-04-24T03:59:04;15.93;;;5.47;;
61962;SDS011;47927;42.646;23.096;2023-04-24T04:01:30;11.02;;;5.72;;
61962;SDS011;47927;42.646;23.096;2023-04-24T04:04:00;7.93;;;4.28;;
61962;SDS011;47927;42.646;23.096;2023-04-24T04:06:26;9.25;;;4.28;;
61962;SDS011;47927;42.646;23.096;2023-04-24T04:08:53;6.32;;;3.92;;
61962;SDS011;47927;42.646;23.096;2023-04-24T04:11:19;5.90;;;4.07;;
61962;SDS011;47927;42.646;23.096;2023-04-24T04:13:45;5.47;;;3.83;;
61962;SDS011;47927;42.646;23.096;2023-04-24T04:16:14;4.75;;;3.80;;
61962;SDS011;47927;42.646;23.096;2023-04-24T04:18:49;6.15;;;4.07;;
61962;SDS011;47927;42.646;23.096;2023-04-24T04:21:18;8.93;;;3.88;;
61962;SDS011;47927;42.646;23.096;2023-04-24T04:26:37;5.85;;;3.95;;
61962;SDS011;47927;42.646;23.096;2023-04-24T04:29:06;8.88;;;3.97;;
61962;SDS011;47927;42.646;23.096;2023-04-24T04:31:34;11.95;;;4.32;;
61962;SDS011;47927;42.646;23.096;2023-04-24T04:34:05;12.65;;;4.47;;
61962;SDS011;47927;42.646;23.096;2023-04-24T04:36:32;7.90;;;4.35;;
61962;SDS011;47927;42.646;23.096;2023-04-24T04:39:13;9.23;;;3.85;;
61962;SDS011;47927;42.646;23.096;2023-04-24T04:41:55;11.50;;;4.15;;
61962;SDS011;47927;42.646;23.096;2023-04-24T04:44:24;8.40;;;3.92;;
61962;SDS011;47927;42.646;23.096;2023-04-24T04:46:50;7.15;;;4.47;;
61962;SDS011;47927;42.646;23.096;2023-04-24T04:49:24;11.63;;;4.28;;
61962;SDS011;47927;42.646;23.096;2023-04-24T04:51:50;7.68;;;4.28;;
61962;SDS011;47927;42.646;23.096;2023-04-24T04:54:16;9.20;;;4.53;;
61962;SDS011;47927;42.646;23.096;2023-04-24T04:56:42;6.93;;;4.35;;
61962;SDS011;47927;42.646;23.096;2023-04-24T04:59:07;10.85;;;4.32;;
61962;SDS011;47927;42.646;23.096;2023-04-24T05:01:34;5.05;;;3.50;;
61962;SDS011;47927;42.646;23.096;2023-04-24T05:04:00;8.48;;;4.28;;
61962;SDS011;47927;42.646;23.096;2023-04-24T05:06:26;7.88;;;3.88;;
61962;SDS011;47927;42.646;23.096;2023-04-24T05:08:53;7.40;;;3.97;;
61962;SDS011;47927;42.646;23.096;2023-04-24T05:11:34;10.65;;;3.92;;
61962;SDS011;47927;42.646;23.096;2023-04-24T05:14:01;7.18;;;3.78;;
61962;SDS011;47927;42.646;23.096;2023-04-24T05:16:37;9.30;;;4.25;;
61962;SDS011;47927;42.646;23.096;2023-04-24T05:19:04;13.85;;;4.45;;
61962;SDS011;47927;42.646;23.096;2023-04-24T05:21:35;11.75;;;4.47;;
61962;SDS011;47927;42.646;23.096;2023-04-24T05:24:01;11.32;;;4.22;;
61962;SDS011;47927;42.646;23.096;2023-04-24T05:26:45;12.10;;;4.28;;
61962;SDS011;47927;42.646;23.096;2023-04-24T05:29:13;9.98;;;4.00;;
61962;SDS011;47927;42.646;23.096;2023-04-24T05:31:38;11.43;;;3.83;;
61962;SDS011;47927;42.646;23.096;2023-04-24T05:34:04;6.75;;;4.13;;
61962;SDS011;47927;42.646;23.096;2023-04-24T05:36:30;8.93;;;3.47;;
61962;SDS011;47927;42.646;23.096;2023-04-24T05:38:57;8.07;;;3.47;;
61962;SDS011;47927;42.646;23.096;2023-04-24T05:41:22;9.65;;;3.63;;
61962;SDS011;47927;42.646;23.096;2023-04-24T05:43:48;9.18;;;4.43;;
61962;SDS011;47927;42.646;23.096;2023-04-24T05:46:13;9.98;;;3.90;;
61962;SDS011;47927;42.646;23.096;2023-04-24T05:48:39;11.63;;;4.20;;
61962;SDS011;47927;42.646;23.096;2023-04-24T05:51:05;8.20;;;4.00;;
61962;SDS011;47927;42.646;23.096;2023-04-24T05:53:30;8.40;;;3.97;;
61962;SDS011;47927;42.646;23.096;2023-04-24T05:55:56;8.48;;;3.35;;
61962;SDS011;47927;42.646;23.096;2023-04-24T05:58:22;8.50;;;3.78;;
61962;SDS011;47927;42.646;23.096;2023-04-24T06:00:48;8.45;;;4.07;;
61962;SDS011;47927;42.646;23.096;2023-04-24T06:03:15;9.00;;;3.78;;
61962;SDS011;47927;42.646;23.096;2023-04-24T06:05:41;13.35;;;4.15;;
61962;SDS011;47927;42.646;23.096;2023-04-24T06:08:08;12.57;;;4.55;;
61962;SDS011;47927;42.646;23.096;2023-04-24T06:10:38;11.93;;;4.32;;
61962;SDS011;47927;42.646;23.096;2023-04-24T06:13:06;14.50;;;4.32;;
61962;SDS011;47927;42.646;23.096;2023-04-24T06:15:34;10.35;;;3.90;;
61962;SDS011;47927;42.646;23.096;2023-04-24T06:18:06;12.23;;;4.10;;
61962;SDS011;47927;42.646;23.096;2023-04-24T06:20:32;10.02;;;3.55;;
61962;SDS011;47927;42.646;23.096;2023-04-24T06:22:57;7.65;;;3.80;;
61962;SDS011;47927;42.646;23.096;2023-04-24T06:25:26;5.25;;;3.30;;
61962;SDS011;47927;42.646;23.096;2023-04-24T06:27:52;5.53;;;3.40;;
61962;SDS011;47927;42.646;23.096;2023-04-24T06:30:17;6.72;;;3.53;;
61962;SDS011;47927;42.646;23.096;2023-04-24T06:32:43;8.23;;;4.15;;
61962;SDS011;47927;42.646;23.096;2023-04-24T06:35:08;7.85;;;3.30;;
61962;SDS011;47927;42.646;23.096;2023-04-24T06:37:35;9.95;;;4.32;;
61962;SDS011;47927;42.646;23.096;2023-04-24T06:40:01;5.57;;;3.30;;
61962;SDS011;47927;42.646;23.096;2023-04-24T06:42:27;10.23;;;3.50;;
61962;SDS011;47927;42.646;23.096;2023-04-24T06:44:54;10.43;;;3.67;;
61962;SDS011;47927;42.646;23.096;2023-04-24T06:47:20;7.82;;;3.60;;
61962;SDS011;47927;42.646;23.096;2023-04-24T06:49:45;9.68;;;3.63;;
61962;SDS011;47927;42.646;23.096;2023-04-24T06:52:11;8.73;;;3.25;;
61962;SDS011;47927;42.646;23.096;2023-04-24T06:54:36;10.52;;;3.78;;
61962;SDS011;47927;42.646;23.096;2023-04-24T06:57:02;9.32;;;4.22;;
61962;SDS011;47927;42.646;23.096;2023-04-24T06:59:28;9.35;;;3.85;;
61962;SDS011;47927;42.646;23.096;2023-04-24T07:01:54;9.40;;;3.90;;
61962;SDS011;47927;42.646;23.096;2023-04-24T07:04:20;7.43;;;4.32;;
61962;SDS011;47927;42.646;23.096;2023-04-24T07:06:46;5.85;;;3.50;;
61962;SDS011;47927;42.646;23.096;2023-04-24T07:09:12;8.20;;;3.65;;
61962;SDS011;47927;42.646;23.096;2023-04-24T07:11:42;6.13;;;3.70;;
61962;SDS011;47927;42.646;23.096;2023-04-24T07:14:07;7.50;;;3.70;;
61962;SDS011;47927;42.646;23.096;2023-04-24T07:16:33;7.28;;;3.33;;
61962;SDS011;47927;42.646;23.096;2023-04-24T07:18:59;6.93;;;3.80;;
61962;SDS011;47927;42.646;23.096;2023-04-24T07:21:25;7.15;;;4.05;;
61962;SDS011;47927;42.646;23.096;2023-04-24T07:23:52;4.97;;;3.45;;
61962;SDS011;47927;42.646;23.096;2023-04-24T07:26:18;5.55;;;3.45;;
61962;SDS011;47927;42.646;23.096;2023-04-24T07:28:43;10.63;;;3.90;;
61962;SDS011;47927;42.646;23.096;2023-04-24T07:31:10;8.65;;;3.90;;
61962;SDS011;47927;42.646;23.096;2023-04-24T07:33:36;10.75;;;3.97;;
61962;SDS011;47927;42.646;23.096;2023-04-24T07:36:02;8.52;;;3.58;;
61962;SDS011;47927;42.646;23.096;2023-04-24T07:38:31;6.95;;;3.42;;
61962;SDS011;47927;42.646;23.096;2023-04-24T07:40:57;11.18;;;3.92;;
61962;SDS011;47927;42.646;23.096;2023-04-24T07:43:22;7.30;;;3.72;;
61962;SDS011;47927;42.646;23.096;2023-04-24T07:45:51;9.20;;;3.60;;
61962;SDS011;47927;42.646;23.096;2023-04-24T07:48:17;7.50;;;3.27;;
61962;SDS011;47927;42.646;23.096;2023-04-24T07:50:43;7.93;;;3.30;;
61962;SDS011;47927;42.646;23.096;2023-04-24T07:53:09;9.30;;;3.47;;
61962;SDS011;47927;42.646;23.096;2023-04-24T07:55:35;10.80;;;3.65;;
61962;SDS011;47927;42.646;23.096;2023-04-24T07:58:01;8.32;;;3.78;;
61962;SDS011;47927;42.646;23.096;2023-04-24T08:00:27;8.13;;;3.28;;
61962;SDS011;47927;42.646;23.096;2023-04-24T08:02:52;6.72;;;3.50;;
61962;SDS011;47927;42.646;23.096;2023-04-24T08:05:18;6.22;;;3.00;;
61962;SDS011;47927;42.646;23.096;2023-04-24T08:07:43;4.60;;;3.22;;
61962;SDS011;47927;42.646;23.096;2023-04-24T08:10:11;8.15;;;3.83;;
61962;SDS011;47927;42.646;23.096;2023-04-24T08:12:37;6.28;;;3.53;;
61962;SDS011;47927;42.646;23.096;2023-04-24T08:15:03;6.30;;;3.60;;
61962;SDS011;47927;42.646;23.096;2023-04-24T08:17:30;6.90;;;3.50;;
61962;SDS011;47927;42.646;23.096;2023-04-24T08:19:55;7.78;;;3.50;;
61962;SDS011;47927;42.646;23.096;2023-04-24T08:22:26;5.55;;;3.20;;
61962;SDS011;47927;42.646;23.096;2023-04-24T08:24:54;7.75;;;3.55;;
61962;SDS011;47927;42.646;23.096;2023-04-24T08:27:22;6.45;;;3.20;;
61962;SDS011;47927;42.646;23.096;2023-04-24T08:29:49;10.13;;;3.92;;
61962;SDS011;47927;42.646;23.096;2023-04-24T08:32:15;8.30;;;3.40;;
61962;SDS011;47927;42.646;23.096;2023-04-24T08:34:41;7.68;;;3.15;;
61962;SDS011;47927;42.646;23.096;2023-04-24T08:37:06;6.53;;;3.72;;
61962;SDS011;47927;42.646;23.096;2023-04-24T08:39:32;9.50;;;3.45;;
61962;SDS011;47927;42.646;23.096;2023-04-24T08:41:58;5.38;;;2.55;;
61962;SDS011;47927;42.646;23.096;2023-04-24T08:44:32;8.40;;;3.33;;
61962;SDS011;47927;42.646;23.096;2023-04-24T08:46:57;8.50;;;3.17;;
61962;SDS011;47927;42.646;23.096;2023-04-24T08:49:23;7.10;;;3.25;;
61962;SDS011;47927;42.646;23.096;2023-04-24T08:51:49;6.18;;;3.20;;
61962;SDS011;47927;42.646;23.096;2023-04-24T08:54:15;7.60;;;3.33;;
61962;SDS011;47927;42.646;23.096;2023-04-24T08:56:43;7.32;;;3.20;;
61962;SDS011;47927;42.646;23.096;2023-04-24T08:59:09;4.38;;;2.75;;
61962;SDS011;47927;42.646;23.096;2023-04-24T09:01:36;7.00;;;3.00;;
61962;SDS011;47927;42.646;23.096;2023-04-24T09:04:04;9.40;;;3.00;;
61962;SDS011;47927;42.646;23.096;2023-04-24T09:06:33;6.82;;;3.03;;
61962;SDS011;47927;42.646;23.096;2023-04-24T09:09:00;4.15;;;2.80;;
61962;SDS011;47927;42.646;23.096;2023-04-24T09:11:27;4.45;;;2.60;;
61962;SDS011;47927;42.646;23.096;2023-04-24T09:13:56;5.32;;;2.55;;
61962;SDS011;47927;42.646;23.096;2023-04-24T09:16:22;4.13;;;2.75;;
61962;SDS011;47927;42.646;23.096;2023-04-24T09:18:50;5.47;;;3.05;;
61962;SDS011;47927;42.646;23.096;2023-04-24T09:21:15;3.42;;;2.55;;
61962;SDS011;47927;42.646;23.096;2023-04-24T09:23:41;7.38;;;2.90;;
61962;SDS011;47927;42.646;23.096;2023-04-24T09:26:07;11.05;;;2.70;;
61962;SDS011;47927;42.646;23.096;2023-04-24T09:28:35;5.07;;;2.67;;
61962;SDS011;47927;42.646;23.096;2023-04-24T09:31:08;7.43;;;3.10;;
61962;SDS011;47927;42.646;23.096;2023-04-24T09:33:34;6.32;;;3.22;;
61962;SDS011;47927;42.646;23.096;2023-04-24T09:36:00;6.32;;;2.88;;
61962;SDS011;47927;42.646;23.096;2023-04-24T09:38:34;6.47;;;3.25;;
61962;SDS011;47927;42.646;23.096;2023-04-24T09:41:10;3.80;;;2.50;;
61962;SDS011;47927;42.646;23.096;2023-04-24T09:43:38;5.38;;;2.58;;
61962;SDS011;47927;42.646;23.096;2023-04-24T09:46:05;8.38;;;2.67;;
61962;SDS011;47927;42.646;23.096;2023-04-24T09:48:36;6.40;;;2.72;;
61962;SDS011;47927;42.646;23.096;2023-04-24T09:51:03;5.07;;;2.80;;
61962;SDS011;47927;42.646;23.096;2023-04-24T09:53:32;6.15;;;2.40;;
61962;SDS011;47927;42.646;23.096;2023-04-24T09:56:10;5.38;;;3.10;;
61962;SDS011;47927;42.646;23.096;2023-04-24T09:58:37;4.95;;;2.45;;
61962;SDS011;47927;42.646;23.096;2023-04-24T10:01:03;5.95;;;2.55;;
61962;SDS011;47927;42.646;23.096;2023-04-24T10:03:32;4.65;;;2.70;;
61962;SDS011;47927;42.646;23.096;2023-04-24T10:05:59;5.60;;;2.38;;
61962;SDS011;47927;42.646;23.096;2023-04-24T10:08:25;6.63;;;2.47;;
61962;SDS011;47927;42.646;23.096;2023-04-24T10:10:54;8.40;;;2.33;;
61962;SDS011;47927;42.646;23.096;2023-04-24T10:13:20;4.03;;;2.20;;
61962;SDS011;47927;42.646;23.096;2023-04-24T10:15:46;5.85;;;2.58;;
61962;SDS011;47927;42.646;23.096;2023-04-24T10:18:14;5.40;;;2.70;;
61962;SDS011;47927;42.646;23.096;2023-04-24T10:20:41;4.35;;;1.95;;
61962;SDS011;47927;42.646;23.096;2023-04-24T10:23:06;6.40;;;2.20;;
61962;SDS011;47927;42.646;23.096;2023-04-24T10:25:33;4.07;;;2.30;;
61962;SDS011;47927;42.646;23.096;2023-04-24T10:28:01;5.72;;;2.78;;
61962;SDS011;47927;42.646;23.096;2023-04-24T10:30:28;4.53;;;2.60;;
61962;SDS011;47927;42.646;23.096;2023-04-24T10:33:01;6.53;;;2.75;;
61962;SDS011;47927;42.646;23.096;2023-04-24T10:35:32;4.35;;;2.42;;
61962;SDS011;47927;42.646;23.096;2023-04-24T10:38:02;10.80;;;2.30;;
61962;SDS011;47927;42.646;23.096;2023-04-24T10:40:33;5.40;;;2.25;;
61962;SDS011;47927;42.646;23.096;2023-04-24T10:43:07;7.88;;;2.60;;
61962;SDS011;47927;42.646;23.096;2023-04-24T10:45:36;7.00;;;2.70;;
61962;SDS011;47927;42.646;23.096;2023-04-24T10:48:03;6.55;;;2.50;;
61962;SDS011;47927;42.646;23.096;2023-04-24T10:50:43;5.32;;;2.50;;
61962;SDS011;47927;42.646;23.096;2023-04-24T10:53:21;5.50;;;3.17;;
61962;SDS011;47927;42.646;23.096;2023-04-24T10:55:57;7.00;;;2.70;;
61962;SDS011;47927;42.646;23.096;2023-04-24T10:58:26;3.75;;;2.42;;
61962;SDS011;47927;42.646;23.096;2023-04-24T11:01:05;4.65;;;2.60;;
61962;SDS011;47927;42.646;23.096;2023-04-24T11:03:32;4.50;;;2.83;;
61962;SDS011;47927;42.646;23.096;2023-04-24T11:06:06;6.20;;;4.15;;
61962;SDS011;47927;42.646;23.096;2023-04-24T11:08:37;7.63;;;4.50;;
61962;SDS011;47927;42.646;23.096;2023-04-24T11:19:00;5.88;;;3.85;;
61962;SDS011;47927;42.646;23.096;2023-04-24T11:21:38;4.82;;;3.72;;
61962;SDS011;47927;42.646;23.096;2023-04-24T11:26:58;5.20;;;3.42;;
61962;SDS011;47927;42.646;23.096;2023-04-24T11:29:40;5.55;;;3.20;;
61962;SDS011;47927;42.646;23.096;2023-04-24T11:32:18;4.95;;;3.00;;
61962;SDS011;47927;42.646;23.096;2023-04-24T11:37:14;6.93;;;3.05;;
61962;SDS011;47927;42.646;23.096;2023-04-24T11:39:40;6.30;;;2.88;;
61962;SDS011;47927;42.646;23.096;2023-04-24T11:42:06;6.47;;;2.55;;
61962;SDS011;47927;42.646;23.096;2023-04-24T11:44:33;8.50;;;2.45;;
61962;SDS011;47927;42.646;23.096;2023-04-24T11:46:59;6.53;;;2.50;;
61962;SDS011;47927;42.646;23.096;2023-04-24T11:49:25;8.68;;;3.10;;
61962;SDS011;47927;42.646;23.096;2023-04-24T11:51:54;9.90;;;3.20;;
61962;SDS011;47927;42.646;23.096;2023-04-24T11:56:46;4.03;;;2.72;;
61962;SDS011;47927;42.646;23.096;2023-04-24T11:59:13;4.70;;;2.67;;
61962;SDS011;47927;42.646;23.096;2023-04-24T12:01:45;4.72;;;2.60;;
61962;SDS011;47927;42.646;23.096;2023-04-24T12:04:12;5.20;;;2.58;;
61962;SDS011;47927;42.646;23.096;2023-04-24T12:06:38;5.47;;;2.55;;
61962;SDS011;47927;42.646;23.096;2023-04-24T12:09:04;5.85;;;2.60;;
61962;SDS011;47927;42.646;23.096;2023-04-24T12:11:30;4.72;;;2.53;;
61962;SDS011;47927;42.646;23.096;2023-04-24T12:13:55;5.70;;;2.85;;
61962;SDS011;47927;42.646;23.096;2023-04-24T12:16:21;4.97;;;2.75;;
61962;SDS011;47927;42.646;23.096;2023-04-24T12:18:47;6.63;;;2.45;;
61962;SDS011;47927;42.646;23.096;2023-04-24T12:21:16;4.10;;;2.40;;
61962;SDS011;47927;42.646;23.096;2023-04-24T12:23:42;4.20;;;2.72;;
61962;SDS011;47927;42.646;23.096;2023-04-24T12:26:09;4.85;;;2.60;;
61962;SDS011;47927;42.646;23.096;2023-04-24T12:28:35;5.68;;;3.20;;
61962;SDS011;47927;42.646;23.096;2023-04-24T12:31:02;6.95;;;3.17;;
61962;SDS011;47927;42.646;23.096;2023-04-24T12:33:31;5.35;;;2.70;;
61962;SDS011;47927;42.646;23.096;2023-04-24T12:35:58;5.72;;;2.88;;
61962;SDS011;47927;42.646;23.096;2023-04-24T12:38:25;6.47;;;3.70;;
61962;SDS011;47927;42.646;23.096;2023-04-24T12:41:04;5.30;;;3.60;;
61962;SDS011;47927;42.646;23.096;2023-04-24T12:43:32;8.38;;;4.15;;
61962;SDS011;47927;42.646;23.096;2023-04-24T12:45:58;7.47;;;4.43;;
61962;SDS011;47927;42.646;23.096;2023-04-24T12:48:27;6.15;;;3.42;;
61962;SDS011;47927;42.646;23.096;2023-04-24T12:50:53;6.78;;;3.30;;
61962;SDS011;47927;42.646;23.096;2023-04-24T12:53:20;5.30;;;3.45;;
61962;SDS011;47927;42.646;23.096;2023-04-24T12:55:46;4.72;;;3.05;;
61962;SDS011;47927;42.646;23.096;2023-04-24T12:58:17;6.13;;;4.30;;
61962;SDS011;47927;42.646;23.096;2023-04-24T13:00:46;7.32;;;3.03;;
61962;SDS011;47927;42.646;23.096;2023-04-24T13:03:12;6.28;;;2.85;;
61962;SDS011;47927;42.646;23.096;2023-04-24T13:05:38;5.10;;;2.70;;
61962;SDS011;47927;42.646;23.096;2023-04-24T13:08:03;5.43;;;2.97;;
61962;SDS011;47927;42.646;23.096;2023-04-24T13:10:29;4.05;;;2.78;;
61962;SDS011;47927;42.646;23.096;2023-04-24T13:12:55;4.45;;;2.63;;
61962;SDS011;47927;42.646;23.096;2023-04-24T13:15:20;6.30;;;3.00;;
61962;SDS011;47927;42.646;23.096;2023-04-24T13:17:46;5.50;;;2.80;;
61962;SDS011;47927;42.646;23.096;2023-04-24T13:20:11;9.43;;;3.42;;
61962;SDS011;47927;42.646;23.096;2023-04-24T13:22:37;6.15;;;2.72;;
61962;SDS011;47927;42.646;23.096;2023-04-24T13:25:03;4.80;;;2.67;;
61962;SDS011;47927;42.646;23.096;2023-04-24T13:27:31;5.78;;;2.90;;
61962;SDS011;47927;42.646;23.096;2023-04-24T13:29:56;5.40;;;2.92;;
61962;SDS011;47927;42.646;23.096;2023-04-24T13:32:22;4.47;;;2.92;;
61962;SDS011;47927;42.646;23.096;2023-04-24T13:34:47;10.25;;;3.00;;
61962;SDS011;47927;42.646;23.096;2023-04-24T13:37:13;5.82;;;3.75;;
61962;SDS011;47927;42.646;23.096;2023-04-24T13:39:40;8.52;;;2.60;;
61962;SDS011;47927;42.646;23.096;2023-04-24T13:42:06;6.32;;;3.58;;
61962;SDS011;47927;42.646;23.096;2023-04-24T13:44:32;5.50;;;3.20;;
61962;SDS011;47927;42.646;23.096;2023-04-24T13:46:57;4.95;;;2.97;;
61962;SDS011;47927;42.646;23.096;2023-04-24T13:49:24;8.55;;;3.40;;
61962;SDS011;47927;42.646;23.096;2023-04-24T13:51:50;7.53;;;3.08;;
61962;SDS011;47927;42.646;23.096;2023-04-24T13:54:16;5.40;;;2.67;;
61962;SDS011;47927;42.646;23.096;2023-04-24T13:56:42;6.88;;;2.70;;
61962;SDS011;47927;42.646;23.096;2023-04-24T13:59:08;7.18;;;2.60;;
61962;SDS011;47927;42.646;23.096;2023-04-24T14:01:34;6.22;;;3.08;;
61962;SDS011;47927;42.646;23.096;2023-04-24T14:04:00;7.00;;;2.83;;
61962;SDS011;47927;42.646;23.096;2023-04-24T14:06:25;9.85;;;3.10;;
61962;SDS011;47927;42.646;23.096;2023-04-24T14:08:51;4.68;;;2.70;;
61962;SDS011;47927;42.646;23.096;2023-04-24T14:11:18;8.18;;;2.75;;
61962;SDS011;47927;42.646;23.096;2023-04-24T14:13:44;7.38;;;3.30;;
61962;SDS011;47927;42.646;23.096;2023-04-24T14:16:10;6.53;;;2.72;;
61962;SDS011;47927;42.646;23.096;2023-04-24T14:18:36;4.88;;;3.00;;
61962;SDS011;47927;42.646;23.096;2023-04-24T14:21:03;5.07;;;2.80;;
61962;SDS011;47927;42.646;23.096;2023-04-24T14:23:29;4.75;;;2.95;;
61962;SDS011;47927;42.646;23.096;2023-04-24T14:25:54;5.82;;;2.88;;
61962;SDS011;47927;42.646;23.096;2023-04-24T14:28:20;5.47;;;2.88;;
61962;SDS011;47927;42.646;23.096;2023-04-24T14:30:49;6.20;;;3.15;;
61962;SDS011;47927;42.646;23.096;2023-04-24T14:33:15;5.50;;;3.00;;
61962;SDS011;47927;42.646;23.096;2023-04-24T14:35:41;5.13;;;2.45;;
61962;SDS011;47927;42.646;23.096;2023-04-24T14:38:08;6.32;;;2.75;;
61962;SDS011;47927;42.646;23.096;2023-04-24T14:40:34;8.95;;;3.10;;
61962;SDS011;47927;42.646;23.096;2023-04-24T14:43:00;4.10;;;2.42;;
61962;SDS011;47927;42.646;23.096;2023-04-24T14:45:26;9.85;;;3.53;;
61962;SDS011;47927;42.646;23.096;2023-04-24T14:47:52;4.93;;;2.90;;
61962;SDS011;47927;42.646;23.096;2023-04-24T14:50:18;6.85;;;3.10;;
61962;SDS011;47927;42.646;23.096;2023-04-24T14:52:44;7.25;;;3.05;;
61962;SDS011;47927;42.646;23.096;2023-04-24T14:55:10;7.38;;;3.47;;